Nathalie — OJLP — position and weather

sailwx.info

Track history (hours):
 
Tides and Currents Weather Stations Pressure Air Temp Water Temp Dewpoint Dewpoint Depression Visibility Wind Speed Wind Dir Waves Ship Positions

Nathalie

Last reported at 2016-Feb-08 05:30 UTC. Time now 2016-Feb-08 12:29 UTC.
Position N 56°55' E 016°35'.

Length 64 m; draft 2.1 m.

Type: Cargo ship. MMSI: 230987660.

Date/timePositionNaut miles runAvg speedWind from/ knotsBaromVisibWave heightAir tempDewpointWater temp
2016-Feb-08 05:30N 56°55' E 016°35'8 8.7
2016-Feb-08 04:33N 57°03' E 016°42'9 8.7
2016-Feb-08 03:33N 57°11' E 016°47'9 8.7
2016-Feb-08 02:34N 57°19' E 016°52'9 8.6
2016-Feb-08 01:33N 57°27' E 016°56'8 8.2
2016-Feb-08 00:33N 57°36' E 016°57'53 6.6
2016-Feb-07 16:32N 58°26' E 017°25'  
2016-Feb-01 06:33N 59°55' E 021°37'9 9.0
2016-Feb-01 05:33N 59°50' E 021°22'9 8.5
2016-Feb-01 04:33N 59°41' E 021°20'  
Track history (hours):
 
Tides and Currents Weather Stations Pressure Air Temp Water Temp Dewpoint Dewpoint Depression Visibility Wind Speed Wind Dir Waves Ship Positions

Nathalie

Last reported at 2016-Feb-08 05:30 UTC. Time now 2016-Feb-08 12:29 UTC.
Position N 56°55' E 016°35'.

Length 64 m; draft 2.1 m.

Type: Cargo ship. MMSI: 230987660.

Date/timePositionNaut miles runAvg speedWind from/ knotsBaromVisibWave heightAir tempDewpointWater temp
2016-Feb-08 05:30N 56°55' E 016°35'8 8.7
2016-Feb-08 04:33N 57°03' E 016°42'9 8.7
2016-Feb-08 03:33N 57°11' E 016°47'9 8.7
2016-Feb-08 02:34N 57°19' E 016°52'9 8.6
2016-Feb-08 01:33N 57°27' E 016°56'8 8.2
2016-Feb-08 00:33N 57°36' E 016°57'53 6.6
2016-Feb-07 16:32N 58°26' E 017°25'  
2016-Feb-01 06:33N 59°55' E 021°37'9 9.0
2016-Feb-01 05:33N 59°50' E 021°22'9 8.5
2016-Feb-01 04:33N 59°41' E 021°20'  

Dump ship's entire track history